Time,TemperatureF,DewpointF,PressureIn,WindDirection,WindDirectionDegrees,WindSpeedMPH,WindSpeedGustMPH,Humidity,HourlyPrecipIn,Conditions,Clouds,dailyrainin,SoftwareType,DateUTC
2013-05-17 00:14:00,65.1,48.0,29.96,NNE,28,1.0,2.0,55,0.00,,,0.00,weatherlink.com 1.10,2013-05-17 04:14:00,
2013-05-17 00:29:00,66.2,47.0,29.96,North,5,1.0,3.0,51,0.00,,,0.00,weatherlink.com 1.10,2013-05-17 04:29:00,
2013-05-17 00:44:00,66.4,48.0,29.96,NE,34,0.0,3.0,51,0.00,,,0.00,weatherlink.com 1.10,2013-05-17 04:44:00,
2013-05-17 00:59:00,66.2,47.0,29.96,North,9,1.0,2.0,51,0.00,,,0.00,weatherlink.com 1.10,2013-05-17 04:59:00,
2013-05-17 01:14:00,65.8,48.0,29.96,NNE,20,0.0,3.0,52,0.00,,,0.00,weatherlink.com 1.10,2013-05-17 05:14:00,
2013-05-17 01:29:00,65.2,50.0,29.96,NE,55,0.0,1.0,58,0.00,,,0.00,weatherlink.com 1.10,2013-05-17 05:29:00,
2013-05-17 01:44:00,64.7,47.0,29.96,NE,55,0.0,2.0,54,0.00,,,0.00,weatherlink.com 1.10,2013-05-17 05:44:00,
2013-05-17 01:59:00,64.5,48.0,29.96,ENE,67,0.0,5.0,55,0.00,,,0.00,weatherlink.com 1.10,2013-05-17 05:59:00,
2013-05-17 02:14:00,64.0,49.0,29.96,ENE,60,0.0,2.0,59,0.00,,,0.00,weatherlink.com 1.10,2013-05-17 06:14:00,
2013-05-17 02:29:00,63.4,48.0,29.95,ENE,59,0.0,1.0,57,0.00,,,0.00,weatherlink.com 1.10,2013-05-17 06:29:00,
2013-05-17 02:44:00,63.4,47.0,29.95,ENE,68,0.0,1.0,55,0.00,,,0.00,weatherlink.com 1.10,2013-05-17 06:44:00,
2013-05-17 02:59:00,62.5,48.0,29.96,ENE,69,0.0,1.0,60,0.00,,,0.00,weatherlink.com 1.10,2013-05-17 06:59:00,
2013-05-17 03:14:00,61.0,48.0,29.96,East,101,0.0,2.0,62,0.00,,,0.00,weatherlink.com 1.10,2013-05-17 07:14:00,
2013-05-17 03:29:00,60.3,48.0,29.96,SE,128,2.0,4.0,65,0.00,,,0.00,weatherlink.com 1.10,2013-05-17 07:29:00,
2013-05-17 03:44:00,60.0,48.0,29.96,ENE,74,0.0,2.0,65,0.00,,,0.00,weatherlink.com 1.10,2013-05-17 07:44:00,
2013-05-17 03:59:00,59.8,49.0,29.96,ESE,120,0.0,3.0,67,0.00,,,0.00,weatherlink.com 1.10,2013-05-17 07:59:00,
2013-05-17 04:14:00,59.3,49.0,29.97,East,83,1.0,3.0,69,0.00,,,0.00,weatherlink.com 1.10,2013-05-17 08:14:00,
2013-05-17 04:29:00,59.4,49.0,29.97,SSE,168,0.0,3.0,68,0.00,,,0.00,weatherlink.com 1.10,2013-05-17 08:29:00,
2013-05-17 04:44:00,58.6,47.0,29.98,NE,49,1.0,5.0,65,0.00,,,0.00,weatherlink.com 1.10,2013-05-17 08:44:00,
2013-05-17 04:59:00,57.8,46.0,29.98,NNE,28,3.0,5.0,65,0.00,,,0.00,weatherlink.com 1.10,2013-05-17 08:59:00,
2013-05-17 05:15:00,56.9,44.0,29.99,North,360,0.0,5.0,62,0.00,,,0.00,weatherlink.com 1.10,2013-05-17 09:15:00,
2013-05-17 05:30:00,56.3,45.0,29.99,SE,129,2.0,4.0,65,0.00,,,0.00,weatherlink.com 1.10,2013-05-17 09:30:00,
2013-05-17 05:45:00,55.6,43.0,30.00,ESE,105,3.0,5.0,64,0.00,,,0.00,weatherlink.com 1.10,2013-05-17 09:45:00,
2013-05-17 06:00:00,55.1,43.0,30.00,ENE,63,0.0,3.0,65,0.00,,,0.00,weatherlink.com 1.10,2013-05-17 10:00:00,
2013-05-17 06:15:00,54.4,43.0,30.00,ENE,78,0.0,2.0,66,0.00,,,0.00,weatherlink.com 1.10,2013-05-17 10:15:00,
2013-05-17 06:30:00,54.1,43.0,30.01,NW,311,0.0,5.0,67,0.00,,,0.00,weatherlink.com 1.10,2013-05-17 10:30:00,
2013-05-17 06:45:00,53.9,43.0,30.01,NNE,16,1.0,3.0,68,0.00,,,0.00,weatherlink.com 1.10,2013-05-17 10:45:00,
2013-05-17 07:00:00,53.7,43.0,30.02,SSW,207,0.0,5.0,67,0.00,,,0.00,weatherlink.com 1.10,2013-05-17 11:00:00,
2013-05-17 07:15:00,53.9,44.0,30.02,ENE,66,1.0,3.0,69,0.00,,,0.00,weatherlink.com 1.10,2013-05-17 11:15:00,
2013-05-17 07:30:00,54.2,43.0,30.02,NE,46,1.0,4.0,66,0.00,,,0.00,weatherlink.com 1.10,2013-05-17 11:30:00,
2013-05-17 07:45:00,54.3,44.0,30.02,ENE,57,4.0,7.0,68,0.00,,,0.00,weatherlink.com 1.10,2013-05-17 11:45:00,
2013-05-17 08:00:00,54.6,45.0,30.03,ESE,113,2.0,5.0,69,0.00,,,0.00,weatherlink.com 1.10,2013-05-17 12:00:00,
2013-05-17 08:15:00,55.0,46.0,30.04,East,92,1.0,6.0,72,0.00,,,0.00,weatherlink.com 1.10,2013-05-17 12:15:00,
2013-05-17 08:30:00,55.9,45.0,30.04,WNW,294,0.0,5.0,66,0.00,,,0.00,weatherlink.com 1.10,2013-05-17 12:30:00,
2013-05-17 08:45:00,56.9,46.0,30.04,WNW,294,0.0,5.0,67,0.00,,,0.00,weatherlink.com 1.10,2013-05-17 12:45:00,
2013-05-17 09:00:00,58.1,46.0,30.04,East,96,3.0,5.0,65,0.00,,,0.00,weatherlink.com 1.10,2013-05-17 13:00:00,
2013-05-17 09:15:00,59.4,47.0,30.05,NW,323,1.0,5.0,64,0.00,,,0.00,weatherlink.com 1.10,2013-05-17 13:15:00,
2013-05-17 09:30:00,60.6,47.0,30.05,NE,40,0.0,6.0,62,0.00,,,0.00,weatherlink.com 1.10,2013-05-17 13:30:00,
2013-05-17 09:45:00,61.8,48.0,30.04,ESE,120,1.0,3.0,60,0.00,,,0.00,weatherlink.com 1.10,2013-05-17 13:45:00,
2013-05-17 10:00:00,63.1,48.0,30.04,NE,38,1.0,5.0,59,0.00,,,0.00,weatherlink.com 1.10,2013-05-17 14:00:00,
2013-05-17 10:15:00,63.9,49.0,30.05,NE,55,3.0,5.0,59,0.00,,,0.00,weatherlink.com 1.10,2013-05-17 14:15:00,
2013-05-17 10:30:00,65.0,50.0,30.04,SE,134,2.0,3.0,58,0.00,,,0.00,weatherlink.com 1.10,2013-05-17 14:30:00,
2013-05-17 10:45:00,66.3,50.0,30.04,SSE,148,3.0,4.0,56,0.00,,,0.00,weatherlink.com 1.10,2013-05-17 14:45:00,
2013-05-17 11:00:00,67.6,51.0,30.04,NNW,343,0.0,4.0,55,0.00,,,0.00,weatherlink.com 1.10,2013-05-17 15:00:00,
2013-05-17 11:15:00,68.7,53.0,30.04,NNE,22,0.0,2.0,57,0.00,,,0.00,weatherlink.com 1.10,2013-05-17 15:15:00,
2013-05-17 11:30:00,70.6,52.0,30.04,NNE,33,1.0,4.0,53,0.00,,,0.00,weatherlink.com 1.10,2013-05-17 15:30:00,
2013-05-17 11:45:00,72.3,53.0,30.04,ESE,113,3.0,5.0,50,0.00,,,0.00,weatherlink.com 1.10,2013-05-17 15:45:00,
2013-05-17 12:00:00,74.0,54.0,30.04,SW,227,1.0,4.0,49,0.00,,,0.00,weatherlink.com 1.10,2013-05-17 16:00:00,
2013-05-17 12:16:00,75.1,55.0,30.04,SE,134,1.0,4.0,49,0.00,,,0.00,weatherlink.com 1.10,2013-05-17 16:16:00,
2013-05-17 12:31:00,75.6,54.0,30.04,ESE,111,7.0,7.0,48,0.00,,,0.00,weatherlink.com 1.10,2013-05-17 16:31:00,
2013-05-17 12:46:00,76.5,54.0,30.03,South,175,0.0,3.0,46,0.00,,,0.00,weatherlink.com 1.10,2013-05-17 16:46:00,
2013-05-17 13:01:00,77.3,55.0,30.03,WSW,254,0.0,5.0,46,0.00,,,0.00,weatherlink.com 1.10,2013-05-17 17:01:00,
2013-05-17 13:16:00,76.7,54.0,30.03,ENE,65,0.0,4.0,46,0.00,,,0.00,weatherlink.com 1.10,2013-05-17 17:16:00,
2013-05-17 13:31:00,78.0,57.0,30.03,NNE,32,1.0,7.0,49,0.00,,,0.00,weatherlink.com 1.10,2013-05-17 17:31:00,
2013-05-17 13:46:00,78.5,55.0,30.03,ESE,104,0.0,3.0,45,0.00,,,0.00,weatherlink.com 1.10,2013-05-17 17:46:00,
2013-05-17 14:01:00,79.1,55.0,30.02,NNE,28,0.0,4.0,44,0.00,,,0.00,weatherlink.com 1.10,2013-05-17 18:01:00,
2013-05-17 14:16:00,78.8,56.0,30.02,SSE,167,3.0,6.0,46,0.00,,,0.00,weatherlink.com 1.10,2013-05-17 18:16:00,
2013-05-17 14:31:00,78.6,56.0,30.02,SE,133,1.0,5.0,46,0.00,,,0.00,weatherlink.com 1.10,2013-05-17 18:31:00,
2013-05-17 14:46:00,77.7,55.0,30.02,SSW,197,2.0,3.0,45,0.00,,,0.00,weatherlink.com 1.10,2013-05-17 18:46:00,
2013-05-17 15:01:00,77.1,56.0,30.01,ENE,66,0.0,5.0,48,0.00,,,0.00,weatherlink.com 1.10,2013-05-17 19:01:00,
2013-05-17 15:16:00,77.2,56.0,30.01,North,355,1.0,3.0,49,0.00,,,0.00,weatherlink.com 1.10,2013-05-17 19:16:00,
2013-05-17 15:31:00,77.1,56.0,30.00,ENE,70,0.0,5.0,49,0.00,,,0.00,weatherlink.com 1.10,2013-05-17 19:31:00,
2013-05-17 15:46:00,77.3,57.0,30.00,NW,307,1.0,3.0,50,0.00,,,0.00,weatherlink.com 1.10,2013-05-17 19:46:00,
2013-05-17 16:01:00,77.2,55.0,29.99,SW,232,0.0,9.0,46,0.00,,,0.00,weatherlink.com 1.10,2013-05-17 20:01:00,
2013-05-17 16:16:00,78.9,54.0,29.98,SW,219,0.0,4.0,43,0.00,,,0.00,weatherlink.com 1.10,2013-05-17 20:16:00,
2013-05-17 16:31:00,80.1,56.0,29.98,East,96,2.0,6.0,43,0.00,,,0.00,weatherlink.com 1.10,2013-05-17 20:31:00,
2013-05-17 16:46:00,81.3,53.0,29.98,SE,124,2.0,6.0,38,0.00,,,0.00,weatherlink.com 1.10,2013-05-17 20:46:00,
2013-05-17 17:02:00,80.8,55.0,29.98,NNE,12,1.0,7.0,41,0.00,,,0.00,weatherlink.com 1.10,2013-05-17 21:02:00,
2013-05-17 17:16:00,79.9,56.0,29.97,NE,51,0.0,4.0,44,0.00,,,0.00,weatherlink.com 1.10,2013-05-17 21:16:00,
2013-05-17 17:31:00,80.6,56.0,29.97,East,94,1.0,8.0,43,0.00,,,0.00,weatherlink.com 1.10,2013-05-17 21:31:00,
2013-05-17 17:46:00,80.7,55.0,29.97,ESE,105,2.0,4.0,42,0.00,,,0.00,weatherlink.com 1.10,2013-05-17 21:46:00,
2013-05-17 18:01:00,80.2,54.0,29.97,West,273,2.0,7.0,40,0.00,,,0.00,weatherlink.com 1.10,2013-05-17 22:01:00,
2013-05-17 18:16:00,79.7,56.0,29.97,SE,136,2.0,5.0,45,0.00,,,0.00,weatherlink.com 1.10,2013-05-17 22:16:00,
2013-05-17 18:31:00,79.1,55.0,29.97,WSW,239,2.0,9.0,43,0.00,,,0.00,weatherlink.com 1.10,2013-05-17 22:31:00,
2013-05-17 18:46:00,77.9,55.0,29.98,SE,126,2.0,7.0,45,0.00,,,0.00,weatherlink.com 1.10,2013-05-17 22:46:00,
2013-05-17 19:01:00,76.5,54.0,30.00,West,259,0.0,11.0,45,0.00,,,0.00,weatherlink.com 1.10,2013-05-17 23:01:00,
2013-05-17 19:16:00,75.8,53.0,30.00,ESE,114,0.0,7.0,45,0.00,,,0.00,weatherlink.com 1.10,2013-05-17 23:16:00,
2013-05-17 19:31:00,75.2,52.0,30.01,SW,223,0.0,7.0,45,0.00,,,0.00,weatherlink.com 1.10,2013-05-17 23:31:00,
2013-05-17 19:46:00,74.4,53.0,30.02,WSW,257,0.0,2.0,48,0.00,,,0.00,weatherlink.com 1.10,2013-05-17 23:46:00,
2013-05-17 20:01:00,73.3,52.0,30.03,SSW,208,0.0,4.0,47,0.00,,,0.00,weatherlink.com 1.10,2013-05-18 00:01:00,
2013-05-17 20:16:00,72.0,54.0,30.05,SSW,208,0.0,5.0,53,0.00,,,0.00,weatherlink.com 1.10,2013-05-18 00:16:00,
2013-05-17 20:31:00,71.2,60.0,30.05,ESE,106,0.0,1.0,67,0.00,,,0.00,weatherlink.com 1.10,2013-05-18 00:31:00,
2013-05-17 20:46:00,70.3,56.0,30.05,SSE,163,0.0,3.0,60,0.00,,,0.00,weatherlink.com 1.10,2013-05-18 00:46:00,
2013-05-17 21:01:00,69.3,50.0,30.06,East,91,5.0,5.0,51,0.00,,,0.00,weatherlink.com 1.10,2013-05-18 01:01:00,
2013-05-17 21:16:00,68.6,48.0,30.06,NW,306,0.0,8.0,48,0.00,,,0.00,weatherlink.com 1.10,2013-05-18 01:16:00,
2013-05-17 21:31:00,67.7,48.0,30.06,ENE,69,0.0,5.0,49,0.00,,,0.00,weatherlink.com 1.10,2013-05-18 01:31:00,
2013-05-17 21:46:00,66.9,49.0,30.06,South,186,0.0,9.0,52,0.00,,,0.00,weatherlink.com 1.10,2013-05-18 01:46:00,
2013-05-17 22:01:00,66.2,48.0,30.06,East,94,2.0,7.0,52,0.00,,,0.00,weatherlink.com 1.10,2013-05-18 02:01:00,
2013-05-17 22:16:00,65.8,47.0,30.06,NE,50,1.0,5.0,51,0.00,,,0.00,weatherlink.com 1.10,2013-05-18 02:16:00,
2013-05-17 22:31:00,65.4,47.0,30.06,ENE,58,0.0,2.0,51,0.00,,,0.00,weatherlink.com 1.10,2013-05-18 02:31:00,
2013-05-17 22:46:00,64.9,47.0,30.06,NNW,329,2.0,4.0,52,0.00,,,0.00,weatherlink.com 1.10,2013-05-18 02:46:00,
2013-05-17 23:01:00,64.4,45.0,30.05,ENE,74,1.0,4.0,49,0.00,,,0.00,weatherlink.com 1.10,2013-05-18 03:01:00,
2013-05-17 23:16:00,63.9,45.0,30.05,SE,132,0.0,5.0,51,0.00,,,0.00,weatherlink.com 1.10,2013-05-18 03:16:00,
2013-05-17 23:31:00,63.3,46.0,30.06,West,264,2.0,7.0,53,0.00,,,0.00,weatherlink.com 1.10,2013-05-18 03:31:00,
2013-05-17 23:46:00,62.7,45.0,30.06,ENE,58,0.0,8.0,53,0.00,,,0.00,weatherlink.com 1.10,2013-05-18 03:46:00,